PST: 22:39 MST: 23:39 CST: 00:39 EST: 01:39 LDN: 06:39 UTC: 05:39
User Agent: CCBot/2.0 (https://commoncrawl.org/faq/)
IP Address: 54.161.116.225
Hostname: ec2-54-161-116-225.compute-1.amazonaws.com

METAR:
KBFI 220453Z 14004KT 6SM BR CLR 07/06 A3000 RMK AO2 SLP159 T00720061
KBFI 220353Z 00000KT 6SM BR FEW060 SCT100 09/07 A3000 RMK AO2 SLP157 T00890067
KBFI 220253Z 00000KT 7SM BR FEW060 SCT100 10/07 A3000 RMK AO2 SLP158 T01000072 53003
KBFI 220153Z 00000KT 9SM BR FEW060 SCT100 11/07 A2999 RMK AO2 SLP157 T01110072

TAF:
KBFI 212320Z 2200/2224 VRB03KT P6SM FEW010
FM 221100 00000KT 4SM BR SCT006
FM 221300 00000KT 1SM BR OVC004
FM 221900 35005KT 5SM BR BKN008
FM 222100 33005KT 6SM HZ BR SCT010
FM 222200 33005KT P6SM SKC

KBFI 212200Z 2122/2218 VRB03KT P6SM FEW010
FM 220000 VRB03KT P6SM SKC
FM 221100 00000KT 4SM BR SCT006
FM 221300 00000KT 1SM BR OVC004

KBFI 212007Z 2120/2218 31004KT 2SM BR OVC006
FM 212200 31004KT 5SM BR SCT010
FM 212300 31004KT 6SM HZ BR FEW015
FM 221100 00000KT 4SM BR SCT006
FM 221300 00000KT 1SM BR OVC004

KBFI 211825Z 2118/2218 VRB03KT 1SM BR BKN003
FM 212000 31004KT 6SM HZ SCT010
FM 212100 31004KT P6SM SKC
FM 221100 00000KT 4SM BR SCT006
FM 221300 00000KT 1SM BR OVC004

KBFI 211720Z 2118/2218 00000KT 1/4SM FG VV002
FM 211900 VRB03KT 1SM BR BKN003
FM 212100 31004KT 6SM HZ SCT012
FM 212200 31004KT P6SM SKC
FM 221100 00000KT 4SM BR SCT006
FM 221300 00000KT 1SM BR OVC004

KBFI 211510Z 2115/2212 00000KT 1/4SM FG VV002
FM 211900 VRB03KT 1SM BR BKN003
FM 212100 31004KT 6SM HZ SCT012
FM 212200 31004KT P6SM SKC
FM 220700 00000KT 4SM BR SCT006
FM 221100 00000KT 1SM BR BKN003

KBFI 211131Z 2112/2212 00000KT 1/4SM FG VV002
FM 211700 00000KT 1SM BR BKN003
FM 211900 VRB03KT 5SM BR BKN006
FM 212200 31004KT 6SM HZ SCT012
FM 220000 31004KT P6SM SKC
FM 220700 00000KT 4SM BR SCT006
FM 221100 00000KT 1SM BR BKN003

KBFI 210813Z 2108/2206 00000KT 1/4SM FG VV001
FM 211700 00000KT 1SM BR BKN003
FM 211900 VRB03KT 5SM BR BKN006
FM 212100 31004KT 6SM HZ SCT012
FM 212300 31004KT P6SM SKC

KBFI 210702Z 2107/2206 00000KT 3SM BR SCT003 TEMPO 2107/2111 3/4SM BR VV001
FM 211100 00000KT 2SM BR OVC006
FM 212000 35005KT P6SM FEW010

KBFI 210520Z 2106/2206 VRB03KT P6SM SKC
FM 211000 00000KT 5SM BR SCT006
FM 211300 00000KT 2SM BR OVC006
FM 212000 35005KT P6SM FEW010